Time;durP1;ratioP1;P1;durP2;ratioP2;P2;SDS_P1;SDS_P2;PMS_P1;PMS_P2;Temp;Humidity;BMP_temperature;BMP_pressure;BME280_temperature;BME280_humidity;BME280_pressure;Samples;Min_cycle;Max_cycle;Signal;HPM_P1;HPM_P2
2023/04/17 00:01:54;;;;;;;16.70;12.07;;;;;;;;;;5013386;28;20235;-83
2023/04/17 00:04:21;;;;;;;16.80;11.70;;;;;;;;;;5017357;28;20204;-82
2023/04/17 00:06:52;;;;;;;17.97;12.20;;;;;;;;;;5020192;28;20701;-82
2023/04/17 00:09:19;;;;;;;16.30;11.93;;;;;;;;;;5026297;28;20243;-82
2023/04/17 00:11:46;;;;;;;16.23;12.23;;;;;;;;;;5034381;28;20230;-82
2023/04/17 00:14:13;;;;;;;15.83;11.40;;;;;;;;;;5043238;28;20254;-82
2023/04/17 00:16:42;;;;;;;17.40;12.50;;;;;;;;;;5025027;28;20632;-82
2023/04/17 00:19:09;;;;;;;16.10;12.07;;;;;;;;;;5036270;28;20242;-82
2023/04/17 00:21:36;;;;;;;16.90;12.70;;;;;;;;;;5028204;28;20227;-83
2023/04/17 00:24:05;;;;;;;16.70;12.30;;;;;;;;;;5032754;28;20586;-83
2023/04/17 00:26:33;;;;;;;17.03;11.77;;;;;;;;;;5024044;28;20231;-83
2023/04/17 00:29:00;;;;;;;16.83;12.17;;;;;;;;;;5024534;28;20606;-82
2023/04/17 00:31:27;;;;;;;19.47;13.13;;;;;;;;;;5027455;28;20227;-83
2023/04/17 00:33:54;;;;;;;17.37;12.03;;;;;;;;;;5028469;28;20208;-82
2023/04/17 00:36:21;;;;;;;14.10;11.83;;;;;;;;;;5027221;28;20235;-83
2023/04/17 00:38:48;;;;;;;18.27;13.07;;;;;;;;;;5027494;28;20254;-83
2023/04/17 00:41:17;;;;;;;16.93;13.10;;;;;;;;;;5027037;28;20231;-82
2023/04/17 00:43:44;;;;;;;17.37;12.70;;;;;;;;;;5027830;28;20203;-83
2023/04/17 00:46:11;;;;;;;17.90;12.50;;;;;;;;;;5028890;28;20239;-82
2023/04/17 00:48:39;;;;;;;16.27;12.67;;;;;;;;;;5021297;28;20262;-83
2023/04/17 00:51:06;;;;;;;17.47;12.67;;;;;;;;;;5010478;28;20740;-83
2023/04/17 00:53:34;;;;;;;18.40;12.93;;;;;;;;;;5009115;28;20694;-84
2023/04/17 00:56:01;;;;;;;18.50;13.83;;;;;;;;;;5014334;28;20235;-83
2023/04/17 00:58:30;;;;;;;16.30;12.90;;;;;;;;;;5018229;28;20277;-83
2023/04/17 01:00:57;;;;;;;19.70;13.87;;;;;;;;;;5026563;28;20237;-82
2023/04/17 01:03:24;;;;;;;20.50;13.03;;;;;;;;;;5002038;28;20669;-83
2023/04/17 01:05:52;;;;;;;19.13;13.37;;;;;;;;;;5017966;28;20235;-83
2023/04/17 01:08:19;;;;;;;19.50;13.60;;;;;;;;;;5010952;28;20238;-83
2023/04/17 01:10:46;;;;;;;19.90;14.43;;;;;;;;;;5010508;28;20235;-83
2023/04/17 01:13:13;;;;;;;20.30;13.93;;;;;;;;;;5013649;28;20220;-83
2023/04/17 01:15:42;;;;;;;22.27;14.10;;;;;;;;;;5019861;28;20472;-83
2023/04/17 01:18:10;;;;;;;21.27;14.57;;;;;;;;;;5012150;28;20250;-83
2023/04/17 01:20:37;;;;;;;20.53;14.07;;;;;;;;;;5014083;28;20236;-83
2023/04/17 01:23:04;;;;;;;19.87;13.60;;;;;;;;;;5022224;28;20213;-83
2023/04/17 01:25:32;;;;;;;17.93;13.03;;;;;;;;;;5025007;28;20206;-84
2023/04/17 01:27:59;;;;;;;21.10;12.83;;;;;;;;;;5015039;28;20235;-83
2023/04/17 01:30:26;;;;;;;19.27;13.17;;;;;;;;;;5015763;28;20207;-83
2023/04/17 01:32:54;;;;;;;20.07;13.80;;;;;;;;;;5014730;28;20207;-83
2023/04/17 01:35:21;;;;;;;18.60;12.87;;;;;;;;;;5013687;28;20664;-83
2023/04/17 01:37:48;;;;;;;17.83;14.00;;;;;;;;;;5014131;28;20551;-83
2023/04/17 01:40:15;;;;;;;22.00;13.70;;;;;;;;;;5012351;28;20230;-83
2023/04/17 01:42:44;;;;;;;20.80;14.37;;;;;;;;;;5017005;28;20208;-83
2023/04/17 01:45:11;;;;;;;18.17;13.93;;;;;;;;;;5016304;28;20678;-83
2023/04/17 01:47:38;;;;;;;19.13;13.57;;;;;;;;;;5013353;28;20235;-83
2023/04/17 01:50:07;;;;;;;19.17;13.73;;;;;;;;;;5013421;28;20231;-83
2023/04/17 01:52:35;;;;;;;22.03;14.43;;;;;;;;;;5013402;28;20227;-83
2023/04/17 01:55:02;;;;;;;22.23;14.17;;;;;;;;;;5013800;28;20290;-84
2023/04/17 01:57:30;;;;;;;21.40;14.63;;;;;;;;;;5013001;28;20231;-83
2023/04/17 01:59:59;;;;;;;19.57;13.20;;;;;;;;;;5013801;28;20254;-84
2023/04/17 02:02:26;;;;;;;20.83;14.47;;;;;;;;;;5013946;28;20227;-84
2023/04/17 02:04:53;;;;;;;21.97;13.83;;;;;;;;;;5013168;28;20207;-84
2023/04/17 02:07:20;;;;;;;22.27;15.20;;;;;;;;;;5012560;28;20275;-84
2023/04/17 02:09:47;;;;;;;21.53;15.57;;;;;;;;;;5012915;28;20223;-83
2023/04/17 02:12:15;;;;;;;20.27;15.23;;;;;;;;;;5013076;28;20235;-83
2023/04/17 02:14:42;;;;;;;20.13;14.07;;;;;;;;;;5013340;28;20250;-83
2023/04/17 02:17:10;;;;;;;24.73;15.50;;;;;;;;;;5012709;28;20242;-83
2023/04/17 02:19:37;;;;;;;21.17;14.97;;;;;;;;;;5021443;28;20246;-83
2023/04/17 02:22:04;;;;;;;24.33;16.40;;;;;;;;;;5012520;28;20235;-83
2023/04/17 02:24:31;;;;;;;26.00;16.67;;;;;;;;;;5013353;28;20227;-83
2023/04/17 02:26:58;;;;;;;24.10;16.63;;;;;;;;;;5012661;28;20291;-83
2023/04/17 02:29:25;;;;;;;23.60;16.33;;;;;;;;;;5004494;28;20238;-83
2023/04/17 02:31:52;;;;;;;25.33;16.67;;;;;;;;;;5012319;28;20651;-83
2023/04/17 02:34:21;;;;;;;27.13;16.97;;;;;;;;;;5012559;28;20242;-83
2023/04/17 02:36:48;;;;;;;27.20;16.87;;;;;;;;;;5012550;28;20227;-83
2023/04/17 02:39:15;;;;;;;27.37;17.90;;;;;;;;;;5011736;28;20228;-83
2023/04/17 02:41:42;;;;;;;28.67;18.30;;;;;;;;;;5012744;28;20227;-83
2023/04/17 02:44:09;;;;;;;27.00;18.43;;;;;;;;;;5012725;28;20210;-83
2023/04/17 02:46:36;;;;;;;28.57;19.07;;;;;;;;;;5019342;28;20231;-83
2023/04/17 02:49:03;;;;;;;28.07;18.90;;;;;;;;;;5012397;28;20638;-83
2023/04/17 02:51:31;;;;;;;28.20;17.90;;;;;;;;;;5012175;28;20231;-84
2023/04/17 02:53:58;;;;;;;27.57;18.97;;;;;;;;;;5012608;28;20218;-84
2023/04/17 02:56:25;;;;;;;26.40;18.37;;;;;;;;;;5015168;28;20703;-84
2023/04/17 02:58:53;;;;;;;28.43;19.07;;;;;;;;;;5024937;28;20235;-83
2023/04/17 03:01:20;;;;;;;27.97;18.47;;;;;;;;;;5011958;28;20613;-84
2023/04/17 03:03:48;;;;;;;28.97;19.30;;;;;;;;;;5012329;28;20233;-84
2023/04/17 03:06:15;;;;;;;30.63;20.20;;;;;;;;;;5020179;28;20237;-84
2023/04/17 03:08:43;;;;;;;35.27;19.53;;;;;;;;;;5012576;28;20223;-83
2023/04/17 03:11:10;;;;;;;29.10;19.33;;;;;;;;;;5011372;28;20935;-83
2023/04/17 03:13:37;;;;;;;32.13;19.37;;;;;;;;;;5012889;28;20204;-83
2023/04/17 03:16:04;;;;;;;30.23;20.33;;;;;;;;;;5019913;28;20235;-83
2023/04/17 03:18:32;;;;;;;35.33;20.67;;;;;;;;;;5035237;23;20578;-83
2023/04/17 03:20:59;;;;;;;30.30;20.60;;;;;;;;;;5022285;28;20230;-83
2023/04/17 03:23:26;;;;;;;32.70;21.27;;;;;;;;;;5013074;28;20200;-83
2023/04/17 03:25:54;;;;;;;32.90;21.90;;;;;;;;;;5016772;28;20300;-83
2023/04/17 03:28:22;;;;;;;33.73;20.47;;;;;;;;;;5014196;28;20239;-84
2023/04/17 03:30:50;;;;;;;32.83;22.23;;;;;;;;;;4993841;28;20626;-84
2023/04/17 03:33:17;;;;;;;35.27;21.73;;;;;;;;;;4993788;28;20208;-84
2023/04/17 03:35:45;;;;;;;35.80;20.93;;;;;;;;;;4993087;28;20232;-84
2023/04/17 03:38:12;;;;;;;34.07;21.27;;;;;;;;;;4993064;28;20211;-84
2023/04/17 03:40:39;;;;;;;30.67;20.07;;;;;;;;;;4992396;28;20236;-84
2023/04/17 03:43:07;;;;;;;34.20;20.73;;;;;;;;;;5006927;28;20212;-84
2023/04/17 03:45:34;;;;;;;28.93;19.30;;;;;;;;;;4992964;28;20593;-84
2023/04/17 03:48:01;;;;;;;32.10;20.07;;;;;;;;;;4993145;28;20224;-84
2023/04/17 03:50:29;;;;;;;32.67;19.90;;;;;;;;;;4992183;28;20259;-84
2023/04/17 03:52:56;;;;;;;31.40;20.20;;;;;;;;;;4993176;28;20619;-84
2023/04/17 03:55:23;;;;;;;31.83;20.03;;;;;;;;;;4992135;28;20236;-84
2023/04/17 03:57:50;;;;;;;37.17;21.13;;;;;;;;;;4992910;28;20208;-83
2023/04/17 04:00:20;;;;;;;32.87;20.20;;;;;;;;;;4991723;28;20263;-84
2023/04/17 04:02:47;;;;;;;26.37;18.63;;;;;;;;;;4992632;28;20231;-84
2023/04/17 04:05:14;;;;;;;29.43;18.90;;;;;;;;;;4991979;28;20215;-84
2023/04/17 04:07:41;;;;;;;35.30;19.73;;;;;;;;;;4992833;28;20254;-85
2023/04/17 04:10:09;;;;;;;33.43;20.80;;;;;;;;;;4992405;28;20718;-85
2023/04/17 04:12:36;;;;;;;29.00;19.00;;;;;;;;;;4992095;28;20295;-85
2023/04/17 04:15:03;;;;;;;31.13;19.33;;;;;;;;;;4992582;28;20216;-85
2023/04/17 04:17:31;;;;;;;31.03;20.20;;;;;;;;;;4983960;28;20236;-85
2023/04/17 04:19:59;;;;;;;28.57;19.63;;;;;;;;;;4992407;28;20228;-86
2023/04/17 04:22:27;;;;;;;30.63;19.30;;;;;;;;;;4997813;28;20231;-84
2023/04/17 04:24:55;;;;;;;31.23;20.07;;;;;;;;;;4992597;28;20212;-83
2023/04/17 04:27:22;;;;;;;28.17;19.30;;;;;;;;;;4991328;28;20228;-84
2023/04/17 04:29:49;;;;;;;31.73;19.93;;;;;;;;;;4992383;28;20224;-84
2023/04/17 04:32:16;;;;;;;32.67;20.37;;;;;;;;;;4991699;28;20259;-84
2023/04/17 04:34:45;;;;;;;33.00;20.50;;;;;;;;;;4992148;28;20600;-84
2023/04/17 04:37:14;;;;;;;32.47;19.67;;;;;;;;;;4991784;28;20239;-86
2023/04/17 04:39:41;;;;;;;30.13;20.57;;;;;;;;;;4993045;28;20255;-84
2023/04/17 04:42:09;;;;;;;34.47;21.83;;;;;;;;;;4991941;28;20311;-86
2023/04/17 04:44:36;;;;;;;36.83;21.23;;;;;;;;;;4992400;28;20208;-86
2023/04/17 04:47:04;;;;;;;34.00;20.60;;;;;;;;;;4991793;28;20551;-85
2023/04/17 04:49:31;;;;;;;37.70;21.67;;;;;;;;;;4991929;28;20220;-85
2023/04/17 04:51:59;;;;;;;36.63;21.87;;;;;;;;;;4991829;28;20232;-84
2023/04/17 04:54:26;;;;;;;34.83;21.60;;;;;;;;;;4995010;28;20226;-85
2023/04/17 04:56:53;;;;;;;38.73;22.13;;;;;;;;;;4995990;28;20228;-85
2023/04/17 04:59:20;;;;;;;36.40;20.70;;;;;;;;;;4996045;28;20232;-86
2023/04/17 05:01:48;;;;;;;39.63;23.27;;;;;;;;;;4995897;28;20228;-85
2023/04/17 05:04:15;;;;;;;36.47;23.37;;;;;;;;;;4996011;28;20221;-85
2023/04/17 05:06:42;;;;;;;39.77;23.87;;;;;;;;;;4995372;28;20224;-85
2023/04/17 05:09:10;;;;;;;38.50;25.10;;;;;;;;;;4995120;28;20240;-85
2023/04/17 05:11:37;;;;;;;45.83;26.00;;;;;;;;;;4995372;28;20933;-85
2023/04/17 05:14:05;;;;;;;43.53;26.50;;;;;;;;;;4995959;28;20216;-85
2023/04/17 05:16:32;;;;;;;44.20;24.03;;;;;;;;;;4995306;28;20232;-85
2023/04/17 05:18:59;;;;;;;47.30;26.73;;;;;;;;;;4996150;28;20236;-84
2023/04/17 05:21:27;;;;;;;48.03;26.67;;;;;;;;;;4993434;28;20235;-85
2023/04/17 05:23:54;;;;;;;47.07;25.80;;;;;;;;;;5001892;28;20212;-85
2023/04/17 05:26:22;;;;;;;47.30;26.63;;;;;;;;;;5008162;28;20232;-85
2023/04/17 05:28:49;;;;;;;50.57;28.00;;;;;;;;;;5001373;28;20709;-85
2023/04/17 05:31:16;;;;;;;50.23;28.57;;;;;;;;;;4995491;28;20263;-85
2023/04/17 05:33:44;;;;;;;54.50;28.80;;;;;;;;;;4996329;28;20211;-85
2023/04/17 05:36:11;;;;;;;51.20;28.77;;;;;;;;;;4994629;28;20275;-83
2023/04/17 05:38:38;;;;;;;52.80;28.87;;;;;;;;;;4994912;28;20227;-84
2023/04/17 05:41:06;;;;;;;50.40;28.37;;;;;;;;;;4994869;28;20239;-84
2023/04/17 05:43:34;;;;;;;54.77;27.90;;;;;;;;;;4995160;28;20227;-83
2023/04/17 05:46:02;;;;;;;51.00;28.13;;;;;;;;;;4994783;28;20874;-83
2023/04/17 05:48:29;;;;;;;56.87;30.07;;;;;;;;;;4994835;28;20641;-84
2023/04/17 05:50:56;;;;;;;55.77;30.67;;;;;;;;;;4994616;28;20235;-84
2023/04/17 05:53:23;;;;;;;55.40;30.43;;;;;;;;;;4994433;28;20576;-84
2023/04/17 05:55:50;;;;;;;56.83;29.50;;;;;;;;;;4995259;28;20636;-84
2023/04/17 05:58:17;;;;;;;60.20;31.73;;;;;;;;;;4995384;28;20208;-85
2023/04/17 06:00:45;;;;;;;60.67;31.63;;;;;;;;;;4994531;28;20231;-86
2023/04/17 06:03:13;;;;;;;63.67;32.53;;;;;;;;;;4994819;28;20212;-85
2023/04/17 06:05:40;;;;;;;64.90;31.70;;;;;;;;;;4993271;28;20228;-85
2023/04/17 06:08:07;;;;;;;65.43;33.87;;;;;;;;;;4995180;28;20299;-86
2023/04/17 06:10:34;;;;;;;66.43;35.07;;;;;;;;;;4995085;28;20243;-85
2023/04/17 06:13:02;;;;;;;62.37;32.07;;;;;;;;;;4994979;28;20235;-85
2023/04/17 06:15:29;;;;;;;60.10;32.00;;;;;;;;;;4994553;28;20266;-84
2023/04/17 06:17:57;;;;;;;72.50;35.03;;;;;;;;;;4995630;28;20235;-85
2023/04/17 06:20:24;;;;;;;63.17;33.97;;;;;;;;;;4995951;28;20290;-85
2023/04/17 06:22:52;;;;;;;65.83;34.03;;;;;;;;;;4995019;28;20223;-85
2023/04/17 06:25:19;;;;;;;67.83;34.40;;;;;;;;;;4993740;28;20220;-85
2023/04/17 06:27:46;;;;;;;59.30;33.10;;;;;;;;;;4992012;28;20204;-85
2023/04/17 06:30:13;;;;;;;56.43;30.37;;;;;;;;;;4993659;28;20274;-85
2023/04/17 06:32:42;;;;;;;50.10;29.57;;;;;;;;;;4994256;28;20216;-84
2023/04/17 06:35:11;;;;;;;53.23;28.97;;;;;;;;;;4991842;28;20239;-85
2023/04/17 06:37:38;;;;;;;50.77;27.97;;;;;;;;;;4985420;28;20235;-85
2023/04/17 06:40:06;;;;;;;41.30;23.57;;;;;;;;;;4993252;28;20239;-86
2023/04/17 06:42:34;;;;;;;45.83;26.53;;;;;;;;;;4992256;28;20262;-86
2023/04/17 06:45:01;;;;;;;39.80;25.07;;;;;;;;;;4992603;28;20239;-86
2023/04/17 06:47:28;;;;;;;40.07;25.23;;;;;;;;;;4991476;28;20251;-85
2023/04/17 06:49:56;;;;;;;34.80;22.27;;;;;;;;;;4992867;28;20743;-86
2023/04/17 06:52:25;;;;;;;32.10;22.10;;;;;;;;;;4993303;28;20231;-85
2023/04/17 06:54:52;;;;;;;29.63;20.43;;;;;;;;;;4993376;28;20314;-85
2023/04/17 06:57:20;;;;;;;31.60;20.90;;;;;;;;;;4992508;28;20232;-85
2023/04/17 06:59:47;;;;;;;29.07;20.57;;;;;;;;;;4992623;28;20243;-86
2023/04/17 07:02:15;;;;;;;27.77;18.87;;;;;;;;;;4993201;28;20414;-85
2023/04/17 07:04:42;;;;;;;23.63;16.40;;;;;;;;;;4993548;28;20208;-85
2023/04/17 07:07:11;;;;;;;23.77;15.70;;;;;;;;;;4993391;28;20227;-86
2023/04/17 07:09:41;;;;;;;20.63;15.27;;;;;;;;;;4992817;28;20561;-86
2023/04/17 07:12:08;;;;;;;22.70;14.60;;;;;;;;;;4988758;28;20239;-85
2023/04/17 07:14:37;;;;;;;19.37;13.57;;;;;;;;;;4994233;28;20220;-86
2023/04/17 07:17:04;;;;;;;22.33;14.93;;;;;;;;;;4993585;28;20235;-85
2023/04/17 07:19:31;;;;;;;18.50;13.87;;;;;;;;;;4994125;28;20260;-85
2023/04/17 07:21:58;;;;;;;18.07;13.67;;;;;;;;;;4993378;28;20282;-85
2023/04/17 07:24:25;;;;;;;18.97;13.60;;;;;;;;;;4992948;28;20216;-85
2023/04/17 07:26:53;;;;;;;16.03;12.77;;;;;;;;;;4992869;28;20227;-86
2023/04/17 07:29:20;;;;;;;18.63;13.10;;;;;;;;;;4993553;28;20238;-86
2023/04/17 07:31:47;;;;;;;17.03;13.17;;;;;;;;;;4992338;28;20224;-86
2023/04/17 07:34:14;;;;;;;17.90;13.33;;;;;;;;;;4993324;28;20223;-86
2023/04/17 07:36:42;;;;;;;15.60;11.73;;;;;;;;;;4992688;28;20227;-85
2023/04/17 07:39:11;;;;;;;15.13;10.57;;;;;;;;;;4993579;28;20235;-86
2023/04/17 07:41:38;;;;;;;15.73;12.40;;;;;;;;;;4992886;28;20243;-86
2023/04/17 07:44:06;;;;;;;14.13;10.87;;;;;;;;;;4997311;28;20239;-86
2023/04/17 07:46:33;;;;;;;15.47;11.27;;;;;;;;;;4993274;28;20235;-85
2023/04/17 07:49:01;;;;;;;15.50;11.33;;;;;;;;;;4992781;28;20236;-85
2023/04/17 07:51:30;;;;;;;15.27;11.57;;;;;;;;;;4992927;28;20235;-86
2023/04/17 07:53:57;;;;;;;15.57;11.87;;;;;;;;;;4993668;28;20582;-86
2023/04/17 07:56:25;;;;;;;15.57;11.20;;;;;;;;;;4992759;28;20232;-86
2023/04/17 07:58:52;;;;;;;13.93;12.40;;;;;;;;;;4994520;28;20247;-86
2023/04/17 08:01:21;;;;;;;17.70;11.80;;;;;;;;;;4992503;28;20246;-85
2023/04/17 08:03:50;;;;;;;18.33;12.10;;;;;;;;;;4993566;28;20246;-86
2023/04/17 08:06:18;;;;;;;14.00;11.87;;;;;;;;;;4992300;28;20228;-86
2023/04/17 08:08:46;;;;;;;14.20;11.57;;;;;;;;;;4992554;28;20250;-86
2023/04/17 08:11:13;;;;;;;17.00;12.80;;;;;;;;;;4992053;28;20252;-86
2023/04/17 08:13:40;;;;;;;17.00;12.20;;;;;;;;;;4992937;28;20228;-86
2023/04/17 08:16:08;;;;;;;15.53;11.70;;;;;;;;;;4992437;28;20238;-86
2023/04/17 08:18:38;;;;;;;15.40;12.53;;;;;;;;;;4992586;28;20232;-86
2023/04/17 08:21:05;;;;;;;19.07;12.33;;;;;;;;;;4992437;28;20259;-86
2023/04/17 08:23:32;;;;;;;14.83;12.47;;;;;;;;;;4992858;28;20250;-86
2023/04/17 08:25:59;;;;;;;16.33;12.43;;;;;;;;;;4994005;28;20243;-85
2023/04/17 08:28:27;;;;;;;16.70;11.43;;;;;;;;;;4996270;28;20295;-86
2023/04/17 08:30:54;;;;;;;14.30;12.23;;;;;;;;;;4997279;28;20235;-84
2023/04/17 08:33:21;;;;;;;16.93;13.13;;;;;;;;;;4996317;28;20809;-85
2023/04/17 08:35:52;;;;;;;14.80;12.40;;;;;;;;;;4996015;28;20698;-86
2023/04/17 08:38:19;;;;;;;17.50;12.43;;;;;;;;;;4996422;28;20247;-86
2023/04/17 08:40:50;;;;;;;15.87;12.40;;;;;;;;;;4986877;28;20688;-86
2023/04/17 08:43:19;;;;;;;18.50;12.60;;;;;;;;;;4996274;28;20243;-87
2023/04/17 08:45:51;;;;;;;17.13;13.97;;;;;;;;;;4996080;28;20232;-85
2023/04/17 08:48:20;;;;;;;18.77;12.37;;;;;;;;;;4996035;28;20244;-86
2023/04/17 08:50:48;;;;;;;20.00;13.20;;;;;;;;;;4995453;28;20228;-85
2023/04/17 08:53:16;;;;;;;19.00;13.43;;;;;;;;;;4996155;28;20212;-86
2023/04/17 08:55:44;;;;;;;17.03;13.43;;;;;;;;;;4995881;28;20760;-86
2023/04/17 08:58:14;;;;;;;19.43;12.90;;;;;;;;;;4996228;28;20228;-86
2023/04/17 09:00:42;;;;;;;15.37;12.73;;;;;;;;;;4995763;28;20239;-86
2023/04/17 09:03:10;;;;;;;15.87;12.30;;;;;;;;;;4996103;28;20220;-86
2023/04/17 09:05:40;;;;;;;20.33;12.83;;;;;;;;;;4996196;28;20258;-86
2023/04/17 09:08:09;;;;;;;15.00;11.30;;;;;;;;;;4996444;28;20211;-86
2023/04/17 09:10:38;;;;;;;16.87;11.63;;;;;;;;;;4994850;28;20690;-86
2023/04/17 09:13:05;;;;;;;16.90;12.33;;;;;;;;;;4995730;28;20216;-87
2023/04/17 09:15:32;;;;;;;14.70;11.10;;;;;;;;;;4995406;28;20240;-86
2023/04/17 09:17:59;;;;;;;14.30;11.40;;;;;;;;;;4995441;28;20231;-86
2023/04/17 09:20:27;;;;;;;14.47;10.60;;;;;;;;;;4995889;28;20247;-85
2023/04/17 09:23:01;;;;;;;12.07;9.83;;;;;;;;;;4994943;28;20212;-85
2023/04/17 09:25:28;;;;;;;13.40;9.80;;;;;;;;;;4994321;28;20212;-85
2023/04/17 09:28:02;;;;;;;11.60;9.30;;;;;;;;;;4996272;28;20690;-86
2023/04/17 09:30:36;;;;;;;13.60;9.03;;;;;;;;;;4994654;28;20302;-86
2023/04/17 09:33:04;;;;;;;12.00;9.53;;;;;;;;;;4994734;28;20773;-85
2023/04/17 09:35:31;;;;;;;13.90;9.70;;;;;;;;;;4991281;28;20751;-86
2023/04/17 09:37:59;;;;;;;10.57;8.30;;;;;;;;;;4991398;28;20235;-85
2023/04/17 09:40:26;;;;;;;10.37;8.80;;;;;;;;;;4992424;28;20295;-85
2023/04/17 09:42:59;;;;;;;12.20;8.70;;;;;;;;;;4993698;28;20237;-85
2023/04/17 09:45:31;;;;;;;11.20;7.97;;;;;;;;;;4993485;28;20216;-85
2023/04/17 09:47:59;;;;;;;9.53;8.03;;;;;;;;;;4994210;28;20576;-86
2023/04/17 09:50:27;;;;;;;10.97;7.87;;;;;;;;;;4993963;28;20239;-85
2023/04/17 09:52:54;;;;;;;9.67;7.80;;;;;;;;;;4995702;28;20745;-86
2023/04/17 09:55:22;;;;;;;10.17;7.77;;;;;;;;;;4994809;28;20224;-86
2023/04/17 09:57:50;;;;;;;8.67;6.93;;;;;;;;;;4995734;28;20336;-86
2023/04/17 10:00:20;;;;;;;8.50;7.47;;;;;;;;;;4994759;28;20726;-86
2023/04/17 10:02:50;;;;;;;8.63;6.97;;;;;;;;;;4994715;28;20220;-86
2023/04/17 10:05:18;;;;;;;8.60;7.70;;;;;;;;;;4994377;28;20216;-86
2023/04/17 10:07:45;;;;;;;8.47;7.53;;;;;;;;;;4994055;28;20212;-85
2023/04/17 10:10:22;;;;;;;10.93;7.67;;;;;;;;;;4993464;28;20228;-85
2023/04/17 10:12:49;;;;;;;8.90;7.53;;;;;;;;;;4994304;28;20216;-85
2023/04/17 10:15:17;;;;;;;8.60;7.10;;;;;;;;;;4993481;28;20216;-85
2023/04/17 10:17:46;;;;;;;10.37;6.87;;;;;;;;;;4993905;28;20239;-85
2023/04/17 10:20:31;;;;;;;9.70;7.60;;;;;;;;;;4993205;28;20251;-86
2023/04/17 10:23:00;;;;;;;8.20;7.30;;;;;;;;;;4986320;28;20219;-85
2023/04/17 10:25:28;;;;;;;6.97;5.97;;;;;;;;;;4992778;28;20270;-85
2023/04/17 10:27:57;;;;;;;7.30;6.53;;;;;;;;;;4994031;28;20511;-85
2023/04/17 10:30:25;;;;;;;7.37;6.10;;;;;;;;;;4993270;28;20267;-85
2023/04/17 10:33:11;;;;;;;6.67;5.93;;;;;;;;;;4994354;28;20219;-85
2023/04/17 10:35:40;;;;;;;7.83;6.60;;;;;;;;;;4993584;28;20232;-86
2023/04/17 10:38:07;;;;;;;7.37;6.10;;;;;;;;;;4994133;28;20235;-86
2023/04/17 10:40:35;;;;;;;9.20;6.50;;;;;;;;;;4992525;28;20239;-85
2023/04/17 10:43:03;;;;;;;7.03;6.27;;;;;;;;;;4993883;28;20212;-86
2023/04/17 10:45:45;;;;;;;7.53;6.40;;;;;;;;;;4992931;28;20274;-86
2023/04/17 10:48:19;;;;;;;7.13;6.30;;;;;;;;;;4993612;28;20628;-87
2023/04/17 10:50:48;;;;;;;9.73;6.07;;;;;;;;;;4993119;28;20242;-86
2023/04/17 10:53:30;;;;;;;7.70;6.33;;;;;;;;;;4994077;28;20212;-87
2023/04/17 10:55:57;;;;;;;6.30;5.50;;;;;;;;;;4985979;28;20874;-87
2023/04/17 10:58:24;;;;;;;6.17;5.57;;;;;;;;;;4994930;28;20697;-86
2023/04/17 11:00:52;;;;;;;10.53;5.77;;;;;;;;;;4993152;28;20228;-86
2023/04/17 11:03:22;;;;;;;7.57;5.67;;;;;;;;;;4993437;28;20212;-85
2023/04/17 11:05:53;;;;;;;6.47;5.10;;;;;;;;;;4993272;28;20246;-85
2023/04/17 11:08:21;;;;;;;7.00;5.30;;;;;;;;;;4993498;28;20229;-85
2023/04/17 11:10:53;;;;;;;5.50;4.83;;;;;;;;;;4993027;28;20240;-85
2023/04/17 11:13:24;;;;;;;8.23;5.20;;;;;;;;;;4993290;28;20203;-86
2023/04/17 11:15:52;;;;;;;8.50;4.87;;;;;;;;;;4992776;28;20231;-85
2023/04/17 11:18:29;;;;;;;5.03;3.57;;;;;;;;;;4994215;28;20227;-86
2023/04/17 11:20:57;;;;;;;3.40;3.00;;;;;;;;;;4993367;28;20228;-85
2023/04/17 11:23:25;;;;;;;3.70;3.30;;;;;;;;;;4993142;28;20204;-85
2023/04/17 11:25:54;;;;;;;3.33;3.03;;;;;;;;;;4993877;28;20240;-86
2023/04/17 11:28:21;;;;;;;3.53;3.00;;;;;;;;;;5003665;28;20219;-85
2023/04/17 11:30:49;;;;;;;2.80;2.60;;;;;;;;;;5011596;28;20240;-86
2023/04/17 11:33:16;;;;;;;3.07;2.70;;;;;;;;;;5001166;28;20227;-86
2023/04/17 11:35:44;;;;;;;5.63;3.10;;;;;;;;;;4994983;28;20236;-85
2023/04/17 11:38:16;;;;;;;3.20;3.00;;;;;;;;;;4994098;28;20223;-86
2023/04/17 11:40:47;;;;;;;3.60;3.30;;;;;;;;;;5004396;28;20232;-85
2023/04/17 11:43:14;;;;;;;3.67;2.97;;;;;;;;;;4995792;28;20212;-85
2023/04/17 11:45:42;;;;;;;3.30;3.00;;;;;;;;;;4993450;28;20242;-85
2023/04/17 11:48:11;;;;;;;3.70;3.20;;;;;;;;;;4992935;28;20674;-85
2023/04/17 11:50:38;;;;;;;3.10;2.77;;;;;;;;;;4991856;28;20255;-85
2023/04/17 11:53:05;;;;;;;3.00;2.80;;;;;;;;;;4991837;28;20212;-85
2023/04/17 11:55:34;;;;;;;3.53;3.00;;;;;;;;;;4991796;28;20580;-85
2023/04/17 11:58:02;;;;;;;2.87;2.50;;;;;;;;;;4991244;28;20769;-85
2023/04/17 12:00:30;;;;;;;3.47;2.77;;;;;;;;;;4991971;28;20316;-85
2023/04/17 12:02:58;;;;;;;4.93;4.00;;;;;;;;;;4992354;28;20209;-85
2023/04/17 12:05:26;;;;;;;2.67;2.47;;;;;;;;;;4993036;28;20203;-85
2023/04/17 12:08:00;;;;;;;2.40;2.20;;;;;;;;;;4993038;28;20958;-85
2023/04/17 12:10:37;;;;;;;2.43;2.23;;;;;;;;;;4992014;28;20266;-85
2023/04/17 12:13:05;;;;;;;3.53;2.37;;;;;;;;;;4985544;28;20206;-86
2023/04/17 12:15:32;;;;;;;2.20;2.10;;;;;;;;;;4991998;28;20323;-85
2023/04/17 12:17:59;;;;;;;2.63;2.20;;;;;;;;;;4983656;28;20231;-85
2023/04/17 12:20:26;;;;;;;1.73;1.63;;;;;;;;;;4990386;28;20235;-84
2023/04/17 12:22:53;;;;;;;1.83;1.73;;;;;;;;;;4992021;28;20215;-85
2023/04/17 12:25:20;;;;;;;2.07;1.97;;;;;;;;;;4991651;28;20212;-85
2023/04/17 12:27:48;;;;;;;2.10;1.90;;;;;;;;;;4993006;28;20223;-85
2023/04/17 12:30:16;;;;;;;2.37;2.17;;;;;;;;;;4992149;28;20231;-85
2023/04/17 12:32:47;;;;;;;1.90;1.80;;;;;;;;;;4992115;28;20340;-85
2023/04/17 12:35:14;;;;;;;3.03;2.03;;;;;;;;;;4992048;28;20702;-85
2023/04/17 12:37:47;;;;;;;2.17;1.97;;;;;;;;;;4992668;28;20196;-84
2023/04/17 12:40:14;;;;;;;2.23;2.03;;;;;;;;;;4991519;28;20311;-85
2023/04/17 12:42:41;;;;;;;4.57;1.90;;;;;;;;;;4991769;28;20204;-86
2023/04/17 12:45:10;;;;;;;2.60;2.40;;;;;;;;;;4992141;28;20207;-86
2023/04/17 12:47:37;;;;;;;2.97;2.13;;;;;;;;;;4991589;28;20223;-85
2023/04/17 12:50:05;;;;;;;2.00;1.90;;;;;;;;;;4991199;28;20260;-85
2023/04/17 12:52:32;;;;;;;2.03;1.87;;;;;;;;;;4991610;28;20307;-85
2023/04/17 12:54:59;;;;;;;1.90;1.80;;;;;;;;;;4991221;28;20207;-84
2023/04/17 12:57:27;;;;;;;1.80;1.70;;;;;;;;;;4991544;28;20220;-84
2023/04/17 12:59:54;;;;;;;1.73;1.50;;;;;;;;;;4991455;28;20235;-83
2023/04/17 13:02:23;;;;;;;1.80;1.70;;;;;;;;;;4991558;28;20227;-85
2023/04/17 13:04:50;;;;;;;1.87;1.77;;;;;;;;;;4991314;28;20674;-84
2023/04/17 13:07:17;;;;;;;1.43;1.40;;;;;;;;;;4991424;28;20254;-85
2023/04/17 13:09:45;;;;;;;1.97;1.73;;;;;;;;;;4991917;28;20239;-84
2023/04/17 13:12:14;;;;;;;1.80;1.70;;;;;;;;;;4991407;28;20238;-85
2023/04/17 13:14:41;;;;;;;1.90;1.80;;;;;;;;;;4993635;28;20215;-85
2023/04/17 13:17:08;;;;;;;3.00;1.77;;;;;;;;;;4995130;28;20227;-85
2023/04/17 13:19:38;;;;;;;1.90;1.80;;;;;;;;;;4994778;28;20236;-84
2023/04/17 13:22:05;;;;;;;1.90;1.80;;;;;;;;;;4987597;28;20223;-84
2023/04/17 13:24:32;;;;;;;1.83;1.73;;;;;;;;;;4995466;28;20591;-85
2023/04/17 13:27:01;;;;;;;2.03;1.90;;;;;;;;;;4994547;28;20248;-85
2023/04/17 13:29:28;;;;;;;2.03;1.93;;;;;;;;;;4994716;28;20220;-85
2023/04/17 13:31:55;;;;;;;2.07;1.83;;;;;;;;;;4995011;28;20243;-85
2023/04/17 13:34:22;;;;;;;2.10;2.00;;;;;;;;;;4995787;28;20204;-85
2023/04/17 13:36:50;;;;;;;3.20;2.10;;;;;;;;;;4995602;28;20718;-84
2023/04/17 13:39:18;;;;;;;3.03;2.30;;;;;;;;;;4994808;28;20259;-85
2023/04/17 13:41:45;;;;;;;2.50;2.37;;;;;;;;;;4994241;28;20227;-85
2023/04/17 13:44:13;;;;;;;2.20;2.00;;;;;;;;;;4994512;28;20210;-85
2023/04/17 13:46:40;;;;;;;2.07;1.87;;;;;;;;;;4993993;28;20238;-85
2023/04/17 13:49:08;;;;;;;2.30;2.10;;;;;;;;;;4994817;28;20212;-85
2023/04/17 13:51:35;;;;;;;4.50;2.20;;;;;;;;;;4995641;28;20228;-86
2023/04/17 13:54:03;;;;;;;2.00;1.90;;;;;;;;;;4994370;28;20204;-86
2023/04/17 13:56:30;;;;;;;2.90;2.67;;;;;;;;;;4994386;28;20282;-86
2023/04/17 13:58:59;;;;;;;3.07;2.20;;;;;;;;;;4993387;28;20231;-85
2023/04/17 14:01:26;;;;;;;1.90;1.80;;;;;;;;;;4994020;28;20224;-84
2023/04/17 14:03:53;;;;;;;2.40;2.20;;;;;;;;;;4994748;28;20219;-84
2023/04/17 14:06:20;;;;;;;2.00;1.90;;;;;;;;;;4994470;28;20228;-85
2023/04/17 14:08:47;;;;;;;2.03;1.90;;;;;;;;;;4996004;28;20228;-87
2023/04/17 14:11:25;;;;;;;2.43;2.00;;;;;;;;;;4996037;28;20238;-88
2023/04/17 14:13:52;;;;;;;2.07;1.87;;;;;;;;;;4996698;28;20215;-85
2023/04/17 14:16:20;;;;;;;1.93;1.83;;;;;;;;;;4995922;28;20235;-83
2023/04/17 14:18:48;;;;;;;2.30;2.20;;;;;;;;;;4994404;28;20263;-85
2023/04/17 14:21:15;;;;;;;3.47;2.07;;;;;;;;;;4994102;28;20231;-86
2023/04/17 14:23:43;;;;;;;2.03;1.93;;;;;;;;;;4994664;28;20655;-85
2023/04/17 14:26:10;;;;;;;2.43;2.20;;;;;;;;;;4994288;28;20756;-84
2023/04/17 14:28:38;;;;;;;2.00;1.90;;;;;;;;;;4998292;28;20201;-86
2023/04/17 14:31:05;;;;;;;2.33;2.17;;;;;;;;;;4989311;28;20238;-87